createdAt,value
2023-10-13T00:00:42.744Z,83.39
2023-10-13T00:03:16.285Z,83.24
2023-10-13T00:05:44.220Z,83.79
2023-10-13T00:08:11.108Z,83.76
2023-10-13T00:10:37.933Z,83.45
2023-10-13T00:13:13.430Z,83.65
2023-10-13T00:15:58.713Z,83.80
2023-10-13T00:18:34.920Z,83.97
2023-10-13T00:21:13.350Z,83.56
2023-10-13T00:23:53.780Z,83.87
2023-10-13T00:26:37.132Z,83.97
2023-10-13T00:29:17.261Z,83.57
2023-10-13T00:31:45.270Z,83.63
2023-10-13T00:34:33.693Z,83.54
2023-10-13T00:37:17.885Z,84.08
2023-10-13T00:39:47.247Z,83.66
2023-10-13T00:42:31.879Z,83.73
2023-10-13T00:44:59.228Z,84.15
2023-10-13T00:47:41.206Z,83.88
2023-10-13T00:50:12.716Z,84.54
2023-10-13T00:52:42.719Z,84.18
2023-10-13T00:55:10.941Z,84.47
2023-10-13T00:57:38.501Z,84.56
2023-10-13T01:00:13.674Z,84.67
2023-10-13T01:02:40.514Z,84.85
2023-10-13T01:05:11.734Z,85.30
2023-10-13T01:07:38.952Z,85.04
2023-10-13T01:10:14.270Z,85.26
2023-10-13T01:12:43.602Z,85.47
2023-10-13T01:15:12.439Z,85.32
2023-10-13T01:17:39.022Z,85.44
2023-10-13T01:20:06.335Z,85.22
2023-10-13T01:22:33.695Z,84.96
2023-10-13T01:25:11.880Z,84.83
2023-10-13T01:27:42.284Z,84.49
2023-10-13T01:30:23.955Z,84.77
2023-10-13T01:32:52.289Z,84.47
2023-10-13T01:35:37.286Z,84.98
2023-10-13T01:38:04.233Z,84.27
2023-10-13T01:40:34.810Z,85.80
2023-10-13T01:43:02.636Z,86.88
2023-10-13T01:45:32.454Z,85.58
2023-10-13T01:47:59.110Z,84.96
2023-10-13T01:50:31.481Z,84.92
2023-10-13T01:53:12.801Z,86.00
2023-10-13T01:55:45.391Z,85.63
2023-10-13T01:58:19.757Z,84.89
2023-10-13T02:00:48.901Z,85.31
2023-10-13T02:03:17.606Z,85.50
2023-10-13T02:05:49.115Z,85.11
2023-10-13T02:08:34.518Z,85.17
2023-10-13T02:11:02.434Z,85.23
2023-10-13T02:13:30.797Z,85.49
2023-10-13T02:15:58.944Z,85.89
2023-10-13T02:18:29.201Z,85.89
2023-10-13T02:20:57.996Z,86.57
2023-10-13T02:23:26.189Z,87.04
2023-10-13T02:26:01.832Z,87.05
2023-10-13T02:28:34.557Z,87.10
2023-10-13T02:31:05.802Z,87.30
2023-10-13T02:33:32.864Z,87.58
2023-10-13T02:36:06.244Z,87.47
2023-10-13T02:38:35.798Z,87.85
2023-10-13T02:41:09.197Z,88.49
2023-10-13T02:43:36.296Z,88.62
2023-10-13T02:46:04.029Z,88.23
2023-10-13T02:48:43.443Z,87.82
2023-10-13T02:51:17.644Z,87.44
2023-10-13T02:53:51.283Z,87.17
2023-10-13T02:56:24.110Z,87.53
2023-10-13T02:58:57.676Z,87.18
2023-10-13T03:01:31.498Z,86.67
2023-10-13T03:03:59.905Z,87.30
2023-10-13T03:06:33.748Z,87.36
2023-10-13T03:09:14.883Z,87.50
2023-10-13T03:11:52.132Z,87.06
2023-10-13T03:14:29.313Z,87.01
2023-10-13T03:17:05.857Z,86.40
2023-10-13T03:19:39.762Z,85.96
2023-10-13T03:22:14.126Z,85.51
2023-10-13T03:24:46.813Z,85.12
2023-10-13T03:27:17.487Z,84.17
2023-10-13T03:29:45.805Z,83.90
2023-10-13T03:32:16.885Z,83.00
2023-10-13T03:35:02.970Z,83.07
2023-10-13T03:37:42.079Z,83.71
2023-10-13T03:40:20.805Z,83.93
2023-10-13T03:43:13.483Z,83.42
2023-10-13T03:45:49.684Z,83.51
2023-10-13T03:48:26.630Z,83.53
2023-10-13T03:51:11.622Z,83.82
2023-10-13T03:53:55.269Z,83.70
2023-10-13T03:56:32.430Z,83.63
2023-10-13T03:59:07.342Z,83.35
2023-10-13T04:01:47.062Z,83.49
2023-10-13T04:04:16.610Z,83.50
2023-10-13T04:06:49.184Z,81.84
2023-10-13T04:09:31.551Z,82.33
2023-10-13T04:12:04.167Z,80.94
2023-10-13T04:14:57.021Z,80.01
2023-10-13T04:17:24.196Z,80.23
2023-10-13T04:20:08.028Z,80.49
2023-10-13T04:22:48.609Z,80.77
2023-10-13T04:25:37.127Z,81.71
2023-10-13T04:28:15.123Z,82.31
2023-10-13T04:30:58.717Z,82.74
2023-10-13T04:33:33.073Z,82.15
2023-10-13T04:36:25.630Z,80.69
2023-10-13T04:38:58.185Z,80.11
2023-10-13T04:41:51.465Z,80.35
2023-10-13T04:44:45.102Z,80.61
2023-10-13T04:47:19.512Z,80.75
2023-10-13T04:49:49.197Z,80.32
2023-10-13T04:52:33.986Z,80.50
2023-10-13T04:55:23.691Z,79.76
2023-10-13T04:58:01.567Z,79.55
2023-10-13T05:00:47.063Z,80.00
2023-10-13T05:03:39.878Z,80.23
2023-10-13T05:06:26.419Z,80.52
2023-10-13T05:09:11.196Z,80.24
2023-10-13T05:11:56.195Z,80.63
2023-10-13T05:14:41.337Z,80.18
2023-10-13T05:17:26.578Z,79.71
2023-10-13T05:20:17.631Z,80.06
2023-10-13T05:23:04.457Z,79.46
2023-10-13T05:25:49.555Z,79.75
2023-10-13T05:28:37.941Z,80.19
2023-10-13T05:31:23.304Z,80.08
2023-10-13T05:34:08.503Z,79.99
2023-10-13T05:36:53.941Z,80.01
2023-10-13T05:39:39.092Z,80.09
2023-10-13T05:42:24.347Z,79.98
2023-10-13T05:45:09.722Z,80.53
2023-10-13T05:47:45.107Z,80.44
2023-10-13T05:50:21.142Z,79.91
2023-10-13T05:52:57.281Z,79.55
2023-10-13T05:55:45.628Z,79.29
2023-10-13T05:58:31.072Z,79.37
2023-10-13T06:01:17.317Z,78.98
2023-10-13T06:04:03.158Z,79.39
2023-10-13T06:06:48.169Z,79.17
2023-10-13T06:09:35.096Z,79.00
2023-10-13T06:12:20.298Z,79.25
2023-10-13T06:15:06.730Z,78.95
2023-10-13T06:17:52.102Z,78.56
2023-10-13T06:20:37.548Z,78.47
2023-10-13T06:23:22.764Z,79.02
2023-10-13T06:26:11.487Z,79.06
2023-10-13T06:28:44.569Z,78.93
2023-10-13T06:31:26.935Z,79.40
2023-10-13T06:33:56.609Z,79.28
2023-10-13T06:36:23.554Z,79.49
2023-10-13T06:39:19.164Z,79.13
2023-10-13T06:41:45.887Z,79.27
2023-10-13T06:44:17.109Z,79.04
2023-10-13T06:46:44.786Z,78.67
2023-10-13T06:49:13.971Z,78.41
2023-10-13T06:51:40.554Z,77.90
2023-10-13T06:54:12.751Z,77.63
2023-10-13T06:56:41.042Z,77.53
2023-10-13T06:59:08.087Z,76.94
2023-10-13T07:01:41.940Z,77.00
2023-10-13T07:04:15.757Z,76.59
2023-10-13T07:06:48.950Z,76.88
2023-10-13T07:09:37.172Z,76.86
2023-10-13T07:12:07.659Z,77.27
2023-10-13T07:14:34.860Z,77.48
2023-10-13T07:17:05.902Z,77.50
2023-10-13T07:19:37.375Z,77.46
2023-10-13T07:22:23.011Z,77.23
2023-10-13T07:24:51.496Z,76.45
2023-10-13T07:27:24.824Z,75.91
2023-10-13T07:30:14.359Z,75.99
2023-10-13T07:32:48.236Z,75.63
2023-10-13T07:35:24.092Z,75.65
2023-10-13T07:37:53.722Z,75.60
2023-10-13T07:40:27.767Z,75.29
2023-10-13T07:43:10.521Z,74.91
2023-10-13T07:45:38.662Z,74.80
2023-10-13T07:48:19.999Z,74.77
2023-10-13T07:50:47.746Z,74.27
2023-10-13T07:53:21.327Z,73.87
2023-10-13T07:55:57.270Z,73.30
2023-10-13T07:58:26.311Z,73.09
2023-10-13T08:01:16.086Z,73.07
2023-10-13T08:03:46.092Z,72.52
2023-10-13T08:06:20.631Z,73.00
2023-10-13T08:08:51.300Z,72.28
2023-10-13T08:11:24.459Z,72.04
2023-10-13T08:14:04.273Z,71.86
2023-10-13T08:16:46.668Z,71.90
2023-10-13T08:19:18.094Z,71.77
2023-10-13T08:22:15.536Z,71.24
2023-10-13T08:24:42.173Z,70.26
2023-10-13T08:27:15.291Z,70.45
2023-10-13T08:30:14.879Z,69.21
2023-10-13T08:32:55.816Z,69.50
2023-10-13T08:35:31.963Z,68.83
2023-10-13T08:38:18.739Z,68.82
2023-10-13T08:41:10.166Z,68.42
2023-10-13T08:43:52.433Z,67.95
2023-10-13T08:46:29.647Z,68.17
2023-10-13T08:49:06.220Z,67.43
2023-10-13T08:51:44.945Z,66.90
2023-10-13T08:54:34.725Z,66.69
2023-10-13T08:57:20.996Z,66.61
2023-10-13T08:59:54.402Z,65.85
2023-10-13T09:02:44.277Z,65.22
2023-10-13T09:05:31.821Z,64.89
2023-10-13T09:08:09.409Z,63.88
2023-10-13T09:10:45.627Z,62.94
2023-10-13T09:13:20.207Z,62.79
2023-10-13T09:16:02.453Z,62.15
2023-10-13T09:18:48.628Z,61.52
2023-10-13T09:21:44.784Z,60.16
2023-10-13T09:24:33.170Z,58.61
2023-10-13T09:27:02.788Z,58.57
2023-10-13T09:29:30.412Z,57.59
2023-10-13T09:32:05.442Z,57.57
2023-10-13T09:34:41.720Z,57.46
2023-10-13T09:37:14.446Z,56.77
2023-10-13T09:39:43.013Z,56.28
2023-10-13T09:42:12.283Z,55.86
2023-10-13T09:44:41.978Z,55.00
2023-10-13T09:47:18.995Z,54.63
2023-10-13T09:49:47.004Z,54.63
2023-10-13T09:52:26.367Z,53.45
2023-10-13T09:55:12.727Z,53.00
2023-10-13T09:57:45.940Z,52.45
2023-10-13T10:00:45.566Z,52.12
2023-10-13T10:03:31.335Z,51.75
2023-10-13T10:06:06.218Z,51.85
2023-10-13T10:08:39.844Z,51.50
2023-10-13T10:11:21.768Z,51.65
2023-10-13T10:14:14.171Z,48.41
2023-10-13T10:17:02.639Z,50.63
2023-10-13T10:19:31.526Z,50.44
2023-10-13T10:22:17.891Z,49.81
2023-10-13T10:24:45.257Z,49.89
2023-10-13T10:27:17.909Z,49.86
2023-10-13T10:29:55.167Z,49.36
2023-10-13T10:32:21.888Z,48.67
2023-10-13T10:34:48.678Z,47.94
2023-10-13T10:37:17.309Z,48.43
2023-10-13T10:39:46.945Z,48.05
2023-10-13T10:42:19.928Z,47.90
2023-10-13T10:44:48.559Z,46.92
2023-10-13T10:47:32.633Z,47.10
2023-10-13T10:50:08.717Z,47.02
2023-10-13T10:52:40.425Z,46.29
2023-10-13T10:55:14.319Z,46.45
2023-10-13T10:57:44.440Z,46.00
2023-10-13T11:00:21.154Z,46.30
2023-10-13T11:02:58.255Z,46.24
2023-10-13T11:05:33.730Z,44.88
2023-10-13T11:08:04.891Z,45.35
2023-10-13T11:10:33.020Z,45.19
2023-10-13T11:13:14.634Z,44.68
2023-10-13T11:15:47.606Z,44.90
2023-10-13T11:18:23.760Z,45.18
2023-10-13T11:20:55.483Z,44.74
2023-10-13T11:23:26.717Z,45.13
2023-10-13T11:26:00.901Z,44.64
2023-10-13T11:28:32.749Z,44.71
2023-10-13T11:31:00.822Z,44.60
2023-10-13T11:33:29.825Z,43.86
2023-10-13T11:35:57.977Z,43.95
2023-10-13T11:38:28.557Z,43.54
2023-10-13T11:41:20.749Z,43.92
2023-10-13T11:43:52.528Z,43.43
2023-10-13T11:46:39.728Z,43.67
2023-10-13T11:49:17.105Z,43.81
2023-10-13T11:51:48.054Z,43.15
2023-10-13T11:54:19.469Z,43.62
2023-10-13T11:56:46.914Z,44.00
2023-10-13T11:59:20.233Z,43.68
2023-10-13T12:02:05.898Z,43.80
2023-10-13T12:04:42.140Z,43.48
2023-10-13T12:07:18.207Z,43.04
2023-10-13T12:09:58.013Z,43.24
2023-10-13T12:12:26.192Z,42.77
2023-10-13T12:15:10.253Z,42.36
2023-10-13T12:17:37.759Z,42.73
2023-10-13T12:20:12.114Z,42.71
2023-10-13T12:22:52.419Z,42.60
2023-10-13T12:25:34.565Z,41.76
2023-10-13T12:28:19.583Z,42.64
2023-10-13T12:30:55.905Z,42.00
2023-10-13T12:33:25.950Z,42.41
2023-10-13T12:36:22.693Z,41.85
2023-10-13T12:38:49.549Z,42.47
2023-10-13T12:41:36.834Z,41.83
2023-10-13T12:44:26.156Z,42.01
2023-10-13T12:47:12.747Z,41.94
2023-10-13T12:49:48.864Z,42.01
2023-10-13T12:52:21.720Z,42.14
2023-10-13T12:55:08.712Z,42.39
2023-10-13T12:57:35.860Z,41.75
2023-10-13T13:00:17.475Z,41.79
2023-10-13T13:02:44.694Z,41.72
2023-10-13T13:05:14.429Z,42.30
2023-10-13T13:07:48.258Z,42.32
2023-10-13T13:10:18.358Z,42.23
2023-10-13T13:12:44.952Z,41.95
2023-10-13T13:15:13.085Z,41.46
2023-10-13T13:17:40.250Z,41.60
2023-10-13T13:20:27.889Z,41.98
2023-10-13T13:22:56.364Z,42.14
2023-10-13T13:25:27.136Z,41.63
2023-10-13T13:27:53.984Z,41.22
2023-10-13T13:30:22.528Z,41.22
2023-10-13T13:32:49.426Z,41.17
2023-10-13T13:35:19.606Z,41.29
2023-10-13T13:37:46.244Z,41.25
2023-10-13T13:40:16.904Z,41.41
2023-10-13T13:42:44.455Z,41.04
2023-10-13T13:45:33.023Z,41.79
2023-10-13T13:47:59.691Z,41.76
2023-10-13T13:50:30.004Z,41.25
2023-10-13T13:52:59.561Z,41.55
2023-10-13T13:55:30.053Z,41.48
2023-10-13T13:57:57.539Z,41.91
2023-10-13T14:00:40.255Z,41.69
2023-10-13T14:03:13.825Z,41.92
2023-10-13T14:05:44.305Z,41.85
2023-10-13T14:08:13.268Z,42.05
2023-10-13T14:10:58.719Z,41.52
2023-10-13T14:13:45.477Z,42.12
2023-10-13T14:16:17.856Z,42.28
2023-10-13T14:18:49.316Z,42.29
2023-10-13T14:21:19.953Z,42.26
2023-10-13T14:23:47.614Z,42.50
2023-10-13T14:26:26.534Z,42.85
2023-10-13T14:29:01.901Z,42.95
2023-10-13T14:31:29.656Z,42.70
2023-10-13T14:33:56.405Z,43.09
2023-10-13T14:36:22.974Z,43.28
2023-10-13T14:38:52.647Z,43.71
2023-10-13T14:41:20.029Z,43.67
2023-10-13T14:43:49.753Z,44.38
2023-10-13T14:46:17.306Z,44.16
2023-10-13T14:48:45.137Z,44.40
2023-10-13T14:51:14.692Z,44.14
2023-10-13T14:53:44.819Z,44.39
2023-10-13T14:56:15.332Z,44.50
2023-10-13T14:58:46.023Z,44.56
2023-10-13T15:01:17.141Z,44.86
2023-10-13T15:03:51.276Z,44.66
2023-10-13T15:06:36.234Z,44.80
2023-10-13T15:09:05.065Z,44.93
2023-10-13T15:11:47.042Z,44.99
2023-10-13T15:14:15.801Z,44.83
2023-10-13T15:16:44.400Z,44.83
2023-10-13T15:19:11.370Z,44.88
2023-10-13T15:21:37.981Z,45.33
2023-10-13T15:24:25.208Z,45.38
2023-10-13T15:27:02.850Z,45.43
2023-10-13T15:29:36.974Z,45.78
2023-10-13T15:32:27.956Z,46.47
2023-10-13T15:34:55.590Z,46.78
2023-10-13T15:37:26.411Z,47.01
2023-10-13T15:39:53.789Z,46.91
2023-10-13T15:42:22.350Z,46.93
2023-10-13T15:44:49.817Z,46.93
2023-10-13T15:49:46.087Z,47.44
2023-10-13T15:52:12.744Z,47.25
2023-10-13T15:54:41.983Z,47.69
2023-10-13T15:57:12.180Z,47.88
2023-10-13T15:59:38.699Z,48.05
2023-10-13T16:02:08.627Z,48.01
2023-10-13T16:04:35.574Z,48.15
2023-10-13T16:07:02.462Z,48.41
2023-10-13T16:09:29.427Z,48.59
2023-10-13T16:11:56.074Z,48.83
2023-10-13T16:14:23.835Z,49.16
2023-10-13T16:16:54.002Z,49.57
2023-10-13T16:19:25.184Z,49.69
2023-10-13T16:21:53.289Z,49.97
2023-10-13T16:24:20.924Z,50.15
2023-10-13T16:26:53.610Z,50.41
2023-10-13T16:29:20.733Z,50.43
2023-10-13T16:31:47.897Z,50.64
2023-10-13T16:34:16.936Z,51.08
2023-10-13T16:36:48.016Z,51.18
2023-10-13T16:39:16.412Z,51.54
2023-10-13T16:41:46.243Z,51.48
2023-10-13T16:44:13.417Z,52.13
2023-10-13T16:46:44.131Z,52.25
2023-10-13T16:49:12.411Z,52.74
2023-10-13T16:51:39.353Z,52.46
2023-10-13T16:54:06.212Z,52.41
2023-10-13T16:56:32.887Z,52.94
2023-10-13T16:58:59.622Z,52.91
2023-10-13T17:01:26.212Z,53.96
2023-10-13T17:03:52.935Z,53.73
2023-10-13T17:06:20.090Z,54.10
2023-10-13T17:08:46.757Z,53.91
2023-10-13T17:11:17.806Z,54.54
2023-10-13T17:13:49.873Z,54.69
2023-10-13T17:16:18.722Z,54.71
2023-10-13T17:18:48.777Z,55.03
2023-10-13T17:21:20.575Z,55.15
2023-10-13T17:23:51.303Z,55.55
2023-10-13T17:26:18.980Z,56.39
2023-10-13T17:28:45.791Z,56.58
2023-10-13T17:31:14.504Z,56.93
2023-10-13T17:33:41.546Z,57.27
2023-10-13T17:36:10.070Z,56.86
2023-10-13T17:38:38.111Z,57.76
2023-10-13T17:41:06.415Z,57.61
2023-10-13T17:43:36.269Z,57.58
2023-10-13T17:46:08.391Z,58.30
2023-10-13T17:48:36.297Z,58.67
2023-10-13T17:51:10.566Z,58.42
2023-10-13T17:53:41.252Z,59.10
2023-10-13T17:56:13.526Z,59.16
2023-10-13T17:58:44.420Z,59.77
2023-10-13T18:01:20.412Z,59.56
2023-10-13T18:03:49.664Z,60.27
2023-10-13T18:06:24.288Z,60.59
2023-10-13T18:08:52.701Z,60.22
2023-10-13T18:11:19.892Z,60.15
2023-10-13T18:13:47.769Z,60.70
2023-10-13T18:16:25.800Z,60.48
2023-10-13T18:18:56.250Z,61.04
2023-10-13T18:21:26.282Z,61.25
2023-10-13T18:23:54.166Z,60.81
2023-10-13T18:26:20.961Z,61.44
2023-10-13T18:28:51.507Z,61.39
2023-10-13T18:31:19.222Z,61.04
2023-10-13T18:33:46.154Z,61.20
2023-10-13T18:36:14.064Z,61.17
2023-10-13T18:38:41.178Z,61.53
2023-10-13T18:41:08.770Z,61.50
2023-10-13T18:43:39.361Z,62.01
2023-10-13T18:46:17.777Z,62.52
2023-10-13T18:48:45.833Z,62.30
2023-10-13T18:51:17.714Z,62.83
2023-10-13T18:53:47.465Z,62.66
2023-10-13T18:56:21.777Z,63.54
2023-10-13T18:58:55.030Z,63.34
2023-10-13T19:01:26.015Z,64.69
2023-10-13T19:03:56.569Z,63.31
2023-10-13T19:06:23.748Z,63.41
2023-10-13T19:08:52.983Z,63.92
2023-10-13T19:11:21.060Z,64.11
2023-10-13T19:13:51.019Z,64.42
2023-10-13T19:16:19.086Z,64.64
2023-10-13T19:18:49.190Z,64.44
2023-10-13T19:21:20.232Z,64.56
2023-10-13T19:23:54.570Z,64.71
2023-10-13T19:26:23.413Z,65.35
2023-10-13T19:28:50.490Z,65.42
2023-10-13T19:31:17.548Z,65.65
2023-10-13T19:33:45.041Z,65.88
2023-10-13T19:36:12.952Z,66.03
2023-10-13T19:38:43.393Z,66.17
2023-10-13T19:41:21.297Z,66.87
2023-10-13T19:43:52.163Z,66.93
2023-10-13T19:46:19.340Z,66.46
2023-10-13T19:48:47.209Z,65.78
2023-10-13T19:51:13.925Z,66.88
2023-10-13T19:53:41.803Z,67.16
2023-10-13T19:56:19.185Z,67.85
2023-10-13T19:58:46.840Z,68.09
2023-10-13T20:01:16.593Z,68.30
2023-10-13T20:03:44.077Z,68.41
2023-10-13T20:06:12.811Z,68.52
2023-10-13T20:08:40.549Z,69.19
2023-10-13T20:11:07.295Z,70.13
2023-10-13T20:13:36.878Z,70.45
2023-10-13T20:16:08.224Z,69.92
2023-10-13T20:18:35.263Z,71.20
2023-10-13T20:21:02.711Z,70.13
2023-10-13T20:23:29.725Z,70.13
2023-10-13T20:25:56.292Z,70.69
2023-10-13T20:28:23.759Z,71.75
2023-10-13T20:30:50.671Z,71.50
2023-10-13T20:33:21.845Z,72.97
2023-10-13T20:35:52.221Z,73.29
2023-10-13T20:38:19.288Z,74.12
2023-10-13T20:40:48.941Z,74.20
2023-10-13T20:43:16.027Z,74.96
2023-10-13T20:45:46.727Z,73.99
2023-10-13T20:48:13.431Z,73.71
2023-10-13T20:50:39.978Z,73.78
2023-10-13T20:53:06.740Z,73.87
2023-10-13T20:55:38.755Z,74.94
2023-10-13T20:58:05.545Z,75.69
2023-10-13T21:00:36.309Z,74.93
2023-10-13T21:03:07.463Z,75.25
2023-10-13T21:05:34.200Z,75.44
2023-10-13T21:08:02.858Z,76.59
2023-10-13T21:10:29.446Z,77.72
2023-10-13T21:12:56.252Z,77.98
2023-10-13T21:15:26.207Z,77.93
2023-10-13T21:17:53.216Z,77.18
2023-10-13T21:20:20.707Z,77.20
2023-10-13T21:22:53.336Z,77.43
2023-10-13T21:25:28.366Z,78.20
2023-10-13T21:27:57.195Z,78.99
2023-10-13T21:30:26.252Z,77.79
2023-10-13T21:32:53.025Z,79.54
2023-10-13T21:35:19.850Z,80.79
2023-10-13T21:37:48.046Z,80.17
2023-10-13T21:40:18.449Z,80.24
2023-10-13T21:42:48.983Z,81.07
2023-10-13T21:45:17.080Z,80.49
2023-10-13T21:47:44.509Z,79.83
2023-10-13T21:50:17.711Z,81.80
2023-10-13T21:52:50.690Z,82.71
2023-10-13T21:55:18.649Z,83.52
2023-10-13T21:57:51.317Z,82.00
2023-10-13T22:00:35.379Z,83.19
2023-10-13T22:03:02.149Z,84.44
2023-10-13T22:05:31.712Z,83.68
2023-10-13T22:07:59.045Z,83.67
2023-10-13T22:10:26.055Z,84.04
2023-10-13T22:12:55.958Z,83.68
2023-10-13T22:15:22.673Z,83.07
2023-10-13T22:17:51.279Z,83.34
2023-10-13T22:20:22.951Z,83.34
2023-10-13T22:22:52.976Z,84.09
2023-10-13T22:25:20.514Z,84.73
2023-10-13T22:27:48.712Z,85.45
2023-10-13T22:30:19.268Z,84.83
2023-10-13T22:32:47.624Z,86.21
2023-10-13T22:35:20.150Z,85.64
2023-10-13T22:37:51.599Z,89.75
2023-10-13T22:40:19.387Z,88.56
2023-10-13T22:42:48.179Z,88.09
2023-10-13T22:45:19.218Z,89.26
2023-10-13T22:47:51.380Z,88.85
2023-10-13T22:50:22.689Z,91.56
2023-10-13T22:52:49.938Z,91.56
2023-10-13T22:55:22.978Z,90.31
2023-10-13T22:57:55.552Z,89.50
2023-10-13T23:00:43.828Z,89.68
2023-10-13T23:03:11.464Z,88.93
2023-10-13T23:05:53.458Z,88.38
2023-10-13T23:08:40.751Z,88.50
2023-10-13T23:11:22.824Z,88.96
2023-10-13T23:13:52.021Z,90.36
2023-10-13T23:16:24.088Z,89.55
2023-10-13T23:19:01.889Z,89.20
2023-10-13T23:21:29.215Z,89.50
2023-10-13T23:23:56.829Z,90.57
2023-10-13T23:26:27.153Z,91.90
2023-10-13T23:28:54.782Z,90.58
2023-10-13T23:31:24.950Z,92.09
2023-10-13T23:33:52.392Z,91.67
2023-10-13T23:36:20.213Z,92.87
2023-10-13T23:38:57.069Z,92.21
2023-10-13T23:41:32.214Z,93.28
2023-10-13T23:43:59.905Z,92.42
2023-10-13T23:46:27.978Z,93.11
2023-10-13T23:48:54.950Z,93.30
2023-10-13T23:51:27.951Z,92.63
2023-10-13T23:53:55.894Z,92.15
2023-10-13T23:56:28.229Z,92.80
2023-10-13T23:59:01.467Z,93.21
